createdAt,value
2023-05-07T00:02:08.610Z,1.70
2023-05-07T00:04:38.942Z,1.90
2023-05-07T00:07:06.805Z,2.00
2023-05-07T00:09:33.816Z,2.00
2023-05-07T00:12:00.897Z,2.10
2023-05-07T00:14:27.712Z,2.10
2023-05-07T00:16:54.941Z,1.90
2023-05-07T00:19:21.964Z,2.30
2023-05-07T00:21:49.284Z,2.20
2023-05-07T00:24:16.251Z,2.50
2023-05-07T00:26:43.251Z,3.90
2023-05-07T00:29:10.175Z,3.10
2023-05-07T00:31:37.099Z,2.50
2023-05-07T00:34:04.946Z,2.20
2023-05-07T00:36:32.008Z,1.90
2023-05-07T00:39:01.170Z,1.90
2023-05-07T00:41:28.304Z,1.80
2023-05-07T00:43:55.390Z,1.60
2023-05-07T00:46:22.533Z,2.00
2023-05-07T00:48:51.173Z,1.80
2023-05-07T00:51:18.893Z,2.00
2023-05-07T00:53:46.383Z,2.30
2023-05-07T00:56:13.396Z,2.00
2023-05-07T00:58:40.504Z,1.80
2023-05-07T01:01:07.627Z,1.90
2023-05-07T01:03:34.648Z,2.00
2023-05-07T01:06:02.293Z,1.90
2023-05-07T01:08:30.639Z,2.10
2023-05-07T01:10:57.624Z,1.90
2023-05-07T01:13:24.586Z,1.70
2023-05-07T01:15:51.774Z,1.60
2023-05-07T01:18:18.616Z,1.60
2023-05-07T01:20:46.243Z,1.50
2023-05-07T01:23:13.954Z,1.80
2023-05-07T01:25:40.891Z,1.50
2023-05-07T01:28:09.931Z,1.60
2023-05-07T01:30:38.006Z,1.50
2023-05-07T01:33:11.301Z,1.70
2023-05-07T01:35:46.708Z,1.60
2023-05-07T01:38:13.734Z,1.50
2023-05-07T01:40:40.661Z,1.50
2023-05-07T01:43:08.084Z,1.70
2023-05-07T01:45:35.783Z,1.60
2023-05-07T01:48:03.748Z,1.60
2023-05-07T01:50:31.285Z,1.60
2023-05-07T01:52:58.121Z,1.50
2023-05-07T01:55:25.114Z,2.00
2023-05-07T01:57:52.221Z,1.60
2023-05-07T02:00:20.343Z,1.50
2023-05-07T02:02:47.522Z,1.60
2023-05-07T02:05:24.257Z,1.50
2023-05-07T02:07:58.860Z,1.60
2023-05-07T02:10:27.645Z,1.20
2023-05-07T02:12:54.610Z,1.30
2023-05-07T02:15:21.622Z,1.50
2023-05-07T02:18:05.162Z,1.40
2023-05-07T02:20:32.317Z,1.20
2023-05-07T02:22:59.341Z,1.30
2023-05-07T02:25:26.550Z,1.20
2023-05-07T02:27:53.795Z,1.20
2023-05-07T02:30:22.438Z,1.50
2023-05-07T02:32:51.084Z,1.60
2023-05-07T02:35:18.164Z,1.40
2023-05-07T02:37:45.241Z,1.60
2023-05-07T02:40:13.655Z,1.70
2023-05-07T02:42:40.702Z,1.80
2023-05-07T02:45:08.739Z,1.60
2023-05-07T02:47:35.901Z,1.30
2023-05-07T02:50:04.702Z,1.20
2023-05-07T02:52:31.922Z,1.70
2023-05-07T02:54:59.251Z,1.50
2023-05-07T02:57:26.238Z,1.60
2023-05-07T02:59:53.132Z,1.30
2023-05-07T03:02:21.356Z,1.70
2023-05-07T03:04:48.283Z,1.30
2023-05-07T03:07:15.745Z,1.80
2023-05-07T03:09:42.979Z,1.70
2023-05-07T03:12:10.278Z,1.70
2023-05-07T03:14:37.390Z,1.30
2023-05-07T03:17:04.540Z,1.60
2023-05-07T03:19:31.774Z,1.50
2023-05-07T03:21:59.147Z,1.60
2023-05-07T03:24:26.403Z,1.50
2023-05-07T03:26:53.279Z,1.50
2023-05-07T03:29:21.051Z,1.50
2023-05-07T03:31:48.165Z,1.50
2023-05-07T03:34:15.120Z,1.50
2023-05-07T03:36:42.248Z,1.50
2023-05-07T03:39:09.726Z,1.40
2023-05-07T03:41:39.427Z,1.60
2023-05-07T03:44:06.575Z,1.40
2023-05-07T03:46:34.439Z,1.50
2023-05-07T03:49:01.433Z,1.60
2023-05-07T03:51:28.967Z,1.60
2023-05-07T03:53:58.133Z,1.60
2023-05-07T03:56:27.861Z,1.50
2023-05-07T03:58:55.801Z,1.80
2023-05-07T04:01:22.706Z,1.60
2023-05-07T04:03:49.898Z,1.70
2023-05-07T04:06:18.451Z,1.90
2023-05-07T04:08:46.622Z,1.90
2023-05-07T04:11:13.842Z,1.80
2023-05-07T04:13:40.878Z,1.70
2023-05-07T04:16:08.919Z,1.80
2023-05-07T04:18:37.244Z,1.80
2023-05-07T04:21:04.798Z,1.80
2023-05-07T04:23:31.944Z,1.90
2023-05-07T04:26:02.100Z,2.00
2023-05-07T04:28:40.908Z,1.70
2023-05-07T04:31:08.213Z,1.70
2023-05-07T04:33:36.221Z,1.60
2023-05-07T04:36:04.161Z,1.70
2023-05-07T04:38:32.951Z,1.70
2023-05-07T04:41:06.405Z,1.70
2023-05-07T04:43:35.003Z,1.50
2023-05-07T04:46:02.423Z,1.70
2023-05-07T04:48:30.125Z,1.40
2023-05-07T04:50:58.620Z,1.40
2023-05-07T04:53:26.089Z,1.60
2023-05-07T04:56:00.757Z,1.30
2023-05-07T04:58:33.183Z,1.20
2023-05-07T05:01:01.449Z,1.30
2023-05-07T05:03:28.811Z,1.20
2023-05-07T05:05:55.999Z,1.30
2023-05-07T05:08:23.300Z,1.50
2023-05-07T05:10:50.975Z,1.20
2023-05-07T05:13:18.857Z,1.30
2023-05-07T05:15:46.808Z,1.20
2023-05-07T05:18:14.236Z,1.20
2023-05-07T05:20:41.439Z,1.40
2023-05-07T05:23:09.015Z,1.10
2023-05-07T05:25:36.198Z,1.20
2023-05-07T05:28:03.923Z,1.00
2023-05-07T05:30:31.598Z,1.10
2023-05-07T05:32:58.454Z,0.80
2023-05-07T05:35:27.204Z,0.80
2023-05-07T05:37:54.149Z,1.10
2023-05-07T05:40:21.711Z,0.90
2023-05-07T05:42:48.690Z,0.90
2023-05-07T05:45:16.720Z,1.00
2023-05-07T05:47:45.832Z,0.90
2023-05-07T05:50:13.499Z,1.00
2023-05-07T05:52:42.074Z,1.10
2023-05-07T05:55:10.035Z,1.10
2023-05-07T05:57:37.723Z,0.90
2023-05-07T06:00:05.941Z,0.90
2023-05-07T06:02:34.154Z,1.10
2023-05-07T06:05:01.951Z,1.10
2023-05-07T06:07:28.969Z,1.10
2023-05-07T06:09:56.636Z,0.90
2023-05-07T06:12:24.194Z,1.10
2023-05-07T06:14:51.113Z,1.00
2023-05-07T06:17:20.916Z,1.10
2023-05-07T06:19:49.951Z,1.10
2023-05-07T06:22:18.269Z,0.90
2023-05-07T06:24:45.418Z,0.90
2023-05-07T06:27:12.334Z,0.80
2023-05-07T06:29:40.415Z,0.70
2023-05-07T06:32:13.884Z,0.90
2023-05-07T06:34:42.822Z,0.70
2023-05-07T06:37:10.084Z,0.90
2023-05-07T06:39:59.285Z,0.90
2023-05-07T06:42:27.765Z,0.80
2023-05-07T06:44:58.304Z,0.90
2023-05-07T06:47:25.787Z,0.70
2023-05-07T06:49:54.151Z,0.90
2023-05-07T06:52:22.425Z,0.90
2023-05-07T06:54:50.650Z,0.70
2023-05-07T06:57:18.644Z,0.80
2023-05-07T06:59:46.491Z,0.80
2023-05-07T07:02:13.417Z,0.70
2023-05-07T07:04:41.290Z,0.70
2023-05-07T07:07:10.049Z,0.70
2023-05-07T07:09:37.277Z,0.70
2023-05-07T07:12:04.751Z,0.70
2023-05-07T07:14:32.004Z,0.70
2023-05-07T07:16:59.237Z,0.80
2023-05-07T07:19:28.269Z,0.80
2023-05-07T07:21:55.504Z,0.90
2023-05-07T07:24:22.579Z,1.00
2023-05-07T07:26:53.098Z,1.00
2023-05-07T07:29:20.335Z,0.80
2023-05-07T07:31:47.431Z,0.80
2023-05-07T07:34:14.655Z,0.70
2023-05-07T07:36:46.061Z,0.70
2023-05-07T07:39:15.469Z,0.70
2023-05-07T07:41:42.663Z,0.70
2023-05-07T07:44:09.943Z,0.60
2023-05-07T07:46:37.556Z,0.70
2023-05-07T07:49:04.751Z,0.70
2023-05-07T07:51:32.646Z,0.70
2023-05-07T07:54:00.277Z,0.60
2023-05-07T07:56:27.668Z,0.80
2023-05-07T07:58:54.493Z,0.70
2023-05-07T08:01:21.453Z,0.70
2023-05-07T08:03:48.882Z,0.70
2023-05-07T08:06:16.678Z,0.60
2023-05-07T08:08:44.106Z,0.90
2023-05-07T08:11:11.525Z,1.10
2023-05-07T08:13:38.579Z,0.90
2023-05-07T08:16:06.110Z,0.60
2023-05-07T08:18:33.378Z,0.60
2023-05-07T08:21:02.231Z,0.90
2023-05-07T08:23:29.410Z,0.70
2023-05-07T08:25:56.538Z,1.10
2023-05-07T08:28:26.038Z,0.80
2023-05-07T08:30:53.044Z,0.90
2023-05-07T08:33:20.395Z,0.70
2023-05-07T08:35:47.397Z,0.80
2023-05-07T08:38:15.255Z,0.70
2023-05-07T08:40:42.486Z,0.80
2023-05-07T08:43:14.416Z,0.80
2023-05-07T08:45:41.630Z,0.70
2023-05-07T08:48:11.522Z,0.60
2023-05-07T08:50:38.877Z,0.70
2023-05-07T08:53:07.686Z,0.70
2023-05-07T08:55:34.691Z,0.70
2023-05-07T08:58:02.480Z,0.80
2023-05-07T09:00:30.036Z,0.80
2023-05-07T09:02:57.246Z,0.70
2023-05-07T09:05:24.673Z,0.90
2023-05-07T09:07:54.419Z,0.90
2023-05-07T09:10:22.692Z,0.50
2023-05-07T09:12:50.639Z,0.70
2023-05-07T09:15:19.409Z,0.80
2023-05-07T09:17:47.356Z,0.70
2023-05-07T09:20:15.068Z,0.80
2023-05-07T09:22:45.442Z,0.60
2023-05-07T09:25:17.035Z,0.80
2023-05-07T09:27:44.294Z,0.80
2023-05-07T09:30:12.473Z,0.60
2023-05-07T09:32:39.542Z,0.70
2023-05-07T09:35:17.175Z,0.90
2023-05-07T09:37:44.342Z,0.90
2023-05-07T09:40:22.414Z,0.70
2023-05-07T09:42:50.925Z,0.60
2023-05-07T09:45:28.146Z,0.90
2023-05-07T09:47:57.845Z,0.70
2023-05-07T09:50:30.611Z,0.80
2023-05-07T09:52:58.168Z,0.70
2023-05-07T09:55:25.789Z,0.80
2023-05-07T09:57:53.905Z,0.90
2023-05-07T10:00:22.394Z,0.80
2023-05-07T10:02:51.054Z,0.80
2023-05-07T10:05:21.669Z,0.80
2023-05-07T10:07:49.521Z,0.70
2023-05-07T10:10:17.208Z,0.60
2023-05-07T10:12:44.533Z,0.70
2023-05-07T10:15:19.281Z,0.60
2023-05-07T10:17:49.105Z,0.60
2023-05-07T10:20:16.504Z,0.60
2023-05-07T10:22:45.815Z,0.80
2023-05-07T10:25:24.808Z,0.70
2023-05-07T10:27:51.991Z,0.70
2023-05-07T10:30:42.156Z,0.60
2023-05-07T10:33:10.399Z,0.80
2023-05-07T10:35:45.549Z,0.70
2023-05-07T10:38:12.776Z,0.90
2023-05-07T10:40:41.053Z,0.80
2023-05-07T10:43:10.673Z,1.00
2023-05-07T10:45:44.843Z,0.70
2023-05-07T10:48:29.794Z,0.80
2023-05-07T10:51:21.960Z,0.80
2023-05-07T10:54:15.764Z,0.80
2023-05-07T10:56:52.121Z,0.80
2023-05-07T10:59:28.336Z,0.80
2023-05-07T11:02:04.412Z,1.00
2023-05-07T11:05:23.332Z,0.90
2023-05-07T11:08:09.539Z,0.70
2023-05-07T11:10:53.739Z,0.80
2023-05-07T11:13:48.397Z,0.90
2023-05-07T11:16:38.918Z,0.70
2023-05-07T11:19:51.776Z,1.00
2023-05-07T11:22:34.285Z,1.10
2023-05-07T11:25:36.574Z,1.30
2023-05-07T11:28:11.569Z,1.20
2023-05-07T11:30:43.831Z,1.10
2023-05-07T11:33:12.220Z,0.90
2023-05-07T11:35:41.759Z,1.00
2023-05-07T11:38:10.874Z,0.60
2023-05-07T11:40:52.577Z,1.10
2023-05-07T11:43:19.861Z,0.90
2023-05-07T11:45:47.514Z,0.90
2023-05-07T11:48:15.042Z,1.10
2023-05-07T11:50:55.853Z,1.00
2023-05-07T11:53:25.799Z,1.00
2023-05-07T11:55:58.741Z,1.00
2023-05-07T11:58:26.806Z,1.00
2023-05-07T12:00:54.487Z,1.10
2023-05-07T12:03:22.193Z,1.00
2023-05-07T12:05:49.263Z,1.00
2023-05-07T12:08:19.994Z,1.10
2023-05-07T12:10:50.904Z,1.00
2023-05-07T12:13:21.868Z,1.20
2023-05-07T12:15:56.569Z,1.00
2023-05-07T12:18:23.735Z,1.30
2023-05-07T12:20:50.616Z,1.20
2023-05-07T12:23:17.889Z,1.50
2023-05-07T12:25:48.852Z,1.30
2023-05-07T12:28:19.963Z,1.40
2023-05-07T12:30:48.542Z,1.10
2023-05-07T12:33:20.847Z,1.50
2023-05-07T12:35:48.842Z,1.30
2023-05-07T12:38:17.521Z,1.20
2023-05-07T12:41:11.910Z,1.30
2023-05-07T12:43:39.384Z,1.40
2023-05-07T12:46:07.915Z,1.40
2023-05-07T12:48:34.954Z,1.70
2023-05-07T12:51:03.640Z,1.30
2023-05-07T12:53:30.800Z,1.50
2023-05-07T12:55:58.673Z,1.40
2023-05-07T12:58:28.320Z,1.40
2023-05-07T13:00:56.528Z,1.30
2023-05-07T13:03:31.980Z,1.20
2023-05-07T13:06:00.750Z,1.20
2023-05-07T13:08:38.873Z,1.30
2023-05-07T13:11:06.080Z,1.30
2023-05-07T13:13:35.624Z,1.60
2023-05-07T13:16:03.212Z,1.40
2023-05-07T13:18:31.183Z,1.70
2023-05-07T13:20:58.340Z,6.30
2023-05-07T13:23:25.141Z,4.00
2023-05-07T13:25:55.120Z,2.30
2023-05-07T13:28:22.288Z,2.60
2023-05-07T13:30:49.367Z,3.20
2023-05-07T13:33:17.133Z,2.80
2023-05-07T13:35:43.995Z,7.20
2023-05-07T13:38:11.087Z,3.10
2023-05-07T13:40:38.149Z,2.30
2023-05-07T13:43:06.859Z,3.60
2023-05-07T13:45:33.713Z,2.20
2023-05-07T13:48:01.668Z,1.50
2023-05-07T13:50:31.054Z,1.20
2023-05-07T13:52:58.845Z,1.30
2023-05-07T13:55:26.087Z,1.30
2023-05-07T13:58:00.605Z,2.10
2023-05-07T14:00:28.219Z,2.30
2023-05-07T14:02:56.299Z,4.80
2023-05-07T14:05:26.390Z,3.30
2023-05-07T14:07:53.868Z,5.60
2023-05-07T14:10:20.962Z,5.90
2023-05-07T14:12:48.165Z,2.20
2023-05-07T14:15:15.498Z,5.00
2023-05-07T14:17:42.382Z,5.70
2023-05-07T14:20:10.341Z,4.20
2023-05-07T14:22:37.658Z,3.10
2023-05-07T14:25:07.215Z,3.50
2023-05-07T14:27:34.432Z,2.00
2023-05-07T14:30:01.289Z,1.70
2023-05-07T14:32:28.361Z,2.10
2023-05-07T14:34:55.491Z,2.40
2023-05-07T14:37:22.448Z,2.70
2023-05-07T14:39:50.201Z,3.00
2023-05-07T14:42:18.416Z,2.60
2023-05-07T14:44:52.688Z,2.10
2023-05-07T14:47:20.252Z,3.60
2023-05-07T14:49:47.325Z,4.10
2023-05-07T14:52:14.204Z,2.50
2023-05-07T14:54:41.161Z,1.50
2023-05-07T14:57:11.124Z,1.50
2023-05-07T14:59:39.644Z,1.70
2023-05-07T15:02:09.224Z,2.20
2023-05-07T15:04:37.189Z,1.90
2023-05-07T15:07:04.028Z,1.70
2023-05-07T15:09:34.238Z,2.30
2023-05-07T15:12:01.438Z,1.60
2023-05-07T15:14:28.376Z,1.50
2023-05-07T15:16:55.505Z,2.70
2023-05-07T15:19:23.458Z,2.20
2023-05-07T15:21:50.414Z,2.50
2023-05-07T15:24:17.258Z,2.00
2023-05-07T15:26:44.216Z,2.20
2023-05-07T15:29:11.662Z,2.00
2023-05-07T15:31:41.592Z,1.90
2023-05-07T15:34:08.640Z,1.90
2023-05-07T15:36:37.568Z,1.70
2023-05-07T15:39:05.589Z,1.80
2023-05-07T15:41:32.732Z,1.80
2023-05-07T15:44:03.791Z,2.00
2023-05-07T15:46:30.904Z,2.10
2023-05-07T15:48:58.136Z,1.80
2023-05-07T15:51:25.186Z,1.90
2023-05-07T15:53:53.510Z,1.80
2023-05-07T15:56:21.550Z,2.20
2023-05-07T15:58:49.593Z,2.10
2023-05-07T16:01:16.789Z,2.30
2023-05-07T16:03:43.925Z,2.00
2023-05-07T16:06:13.855Z,2.40
2023-05-07T16:08:42.087Z,1.90
2023-05-07T16:11:10.998Z,2.00
2023-05-07T16:13:37.920Z,2.00
2023-05-07T16:16:06.861Z,1.90
2023-05-07T16:18:34.149Z,1.60
2023-05-07T16:21:01.518Z,1.90
2023-05-07T16:23:29.298Z,1.70
2023-05-07T16:25:57.946Z,2.10
2023-05-07T16:28:25.786Z,2.50
2023-05-07T16:30:53.076Z,2.20
2023-05-07T16:33:20.209Z,2.10
2023-05-07T16:35:56.761Z,2.00
2023-05-07T16:38:23.819Z,2.00
2023-05-07T16:40:50.868Z,2.00
2023-05-07T16:43:24.142Z,1.90
2023-05-07T16:45:55.893Z,1.80
2023-05-07T16:48:23.168Z,1.60
2023-05-07T16:50:50.013Z,1.40
2023-05-07T16:53:16.858Z,1.50
2023-05-07T16:55:43.797Z,1.20
2023-05-07T16:58:11.479Z,1.40
2023-05-07T17:00:50.231Z,1.60
2023-05-07T17:03:18.825Z,1.50
2023-05-07T17:05:46.143Z,1.60
2023-05-07T17:08:14.323Z,1.30
2023-05-07T17:10:42.064Z,1.10
2023-05-07T17:13:08.910Z,1.40
2023-05-07T17:15:36.187Z,1.80
2023-05-07T17:18:03.235Z,1.20
2023-05-07T17:20:30.172Z,1.40
2023-05-07T17:22:57.134Z,1.50
2023-05-07T17:25:24.020Z,1.30
2023-05-07T17:27:51.166Z,1.40
2023-05-07T17:30:18.829Z,1.60
2023-05-07T17:32:45.934Z,1.50
2023-05-07T17:35:12.911Z,2.00
2023-05-07T17:37:40.294Z,1.60
2023-05-07T17:40:08.041Z,1.90
2023-05-07T17:42:35.016Z,1.70
2023-05-07T17:45:01.964Z,2.00
2023-05-07T17:47:28.891Z,1.90
2023-05-07T17:49:57.497Z,1.70
2023-05-07T17:52:24.835Z,1.80
2023-05-07T17:54:51.601Z,1.50
2023-05-07T17:57:18.558Z,1.70
2023-05-07T17:59:46.186Z,1.20
2023-05-07T18:02:13.545Z,1.60
2023-05-07T18:04:40.607Z,1.70
2023-05-07T18:07:07.516Z,1.70
2023-05-07T18:09:34.483Z,1.80
2023-05-07T18:12:02.132Z,2.00
2023-05-07T18:14:29.445Z,1.80
2023-05-07T18:16:56.263Z,1.70
2023-05-07T18:19:23.292Z,1.60
2023-05-07T18:21:50.267Z,1.80
2023-05-07T18:24:17.172Z,1.70
2023-05-07T18:26:44.112Z,2.00
2023-05-07T18:29:11.208Z,2.00
2023-05-07T18:31:38.314Z,2.30
2023-05-07T18:34:06.686Z,2.20
2023-05-07T18:36:33.857Z,2.10
2023-05-07T18:39:01.441Z,2.70
2023-05-07T18:41:28.439Z,2.00
2023-05-07T18:43:55.854Z,2.00
2023-05-07T18:46:23.041Z,1.90
2023-05-07T18:48:50.103Z,1.80
2023-05-07T18:51:16.963Z,1.80
2023-05-07T18:53:43.899Z,1.90
2023-05-07T18:56:10.837Z,2.00
2023-05-07T18:58:37.863Z,2.00
2023-05-07T19:01:08.733Z,1.80
2023-05-07T19:03:36.042Z,1.90
2023-05-07T19:06:03.459Z,2.10
2023-05-07T19:08:30.270Z,2.10
2023-05-07T19:10:58.528Z,1.80
2023-05-07T19:13:28.670Z,1.80
2023-05-07T19:15:55.944Z,1.80
2023-05-07T19:18:23.019Z,2.20
2023-05-07T19:20:52.176Z,1.90
2023-05-07T19:23:21.829Z,1.90
2023-05-07T19:25:49.349Z,2.10
2023-05-07T19:28:16.463Z,2.00
2023-05-07T19:30:43.383Z,1.80
2023-05-07T19:33:10.561Z,1.50
2023-05-07T19:35:37.800Z,1.90
2023-05-07T19:38:06.341Z,1.90
2023-05-07T19:40:33.311Z,1.70
2023-05-07T19:43:00.360Z,2.10
2023-05-07T19:45:27.223Z,1.90
2023-05-07T19:47:54.456Z,2.10
2023-05-07T19:50:22.329Z,2.20
2023-05-07T19:52:49.344Z,1.90
2023-05-07T19:55:16.383Z,2.10
2023-05-07T19:57:44.096Z,2.30
2023-05-07T20:00:12.190Z,2.30
2023-05-07T20:02:42.165Z,2.20
2023-05-07T20:05:11.741Z,2.40
2023-05-07T20:07:38.730Z,2.40
2023-05-07T20:10:06.547Z,2.40
2023-05-07T20:12:33.437Z,2.10
2023-05-07T20:15:00.579Z,2.20
2023-05-07T20:17:27.492Z,2.70
2023-05-07T20:19:55.292Z,2.40
2023-05-07T20:22:23.910Z,2.30
2023-05-07T20:24:51.438Z,2.30
2023-05-07T20:27:22.539Z,2.20
2023-05-07T20:29:49.526Z,2.30
2023-05-07T20:32:17.463Z,2.20
2023-05-07T20:34:48.001Z,2.40
2023-05-07T20:37:15.841Z,2.50
2023-05-07T20:39:42.962Z,2.40
2023-05-07T20:42:09.790Z,2.60
2023-05-07T20:44:37.090Z,3.10
2023-05-07T20:47:04.978Z,2.20
2023-05-07T20:49:31.820Z,2.30
2023-05-07T20:51:58.964Z,2.70
2023-05-07T20:54:28.311Z,2.50
2023-05-07T20:56:57.085Z,2.40
2023-05-07T20:59:24.401Z,2.20
2023-05-07T21:01:51.822Z,2.00
2023-05-07T21:04:20.204Z,2.10
2023-05-07T21:06:47.157Z,2.30
2023-05-07T21:09:14.145Z,2.30
2023-05-07T21:11:41.472Z,2.20
2023-05-07T21:14:08.582Z,2.50
2023-05-07T21:16:35.769Z,2.10
2023-05-07T21:19:02.744Z,2.40
2023-05-07T21:21:29.952Z,2.00
2023-05-07T21:23:57.567Z,2.00
2023-05-07T21:26:27.482Z,2.30
2023-05-07T21:28:54.416Z,2.30
2023-05-07T21:31:21.441Z,2.20
2023-05-07T21:33:48.402Z,2.20
2023-05-07T21:36:15.208Z,2.80
2023-05-07T21:38:42.066Z,2.40
2023-05-07T21:41:08.990Z,2.30
2023-05-07T21:43:36.273Z,2.50
2023-05-07T21:46:10.690Z,2.30
2023-05-07T21:48:38.997Z,2.20
2023-05-07T21:51:07.527Z,2.30
2023-05-07T21:53:34.913Z,2.20
2023-05-07T21:56:03.177Z,2.40
2023-05-07T21:58:31.344Z,2.00
2023-05-07T22:00:58.816Z,2.20
2023-05-07T22:03:25.953Z,2.30
2023-05-07T22:05:53.221Z,2.10
2023-05-07T22:08:20.484Z,2.00
2023-05-07T22:10:47.612Z,2.20
2023-05-07T22:13:14.431Z,2.10
2023-05-07T22:15:49.653Z,2.30
2023-05-07T22:18:23.798Z,2.20
2023-05-07T22:20:52.125Z,2.10
2023-05-07T22:23:19.095Z,2.50
2023-05-07T22:25:45.886Z,2.30
2023-05-07T22:28:13.127Z,2.00
2023-05-07T22:30:40.647Z,2.50
2023-05-07T22:33:07.703Z,2.30
2023-05-07T22:35:35.862Z,2.20
2023-05-07T22:38:02.970Z,2.70
2023-05-07T22:40:29.774Z,2.60
2023-05-07T22:42:56.719Z,2.90
2023-05-07T22:45:23.537Z,2.90
2023-05-07T22:47:50.700Z,2.90
2023-05-07T22:50:18.239Z,2.80
2023-05-07T22:52:45.212Z,2.90
2023-05-07T22:55:12.005Z,3.30
2023-05-07T22:57:39.052Z,3.20
2023-05-07T23:00:06.735Z,2.90
2023-05-07T23:02:34.065Z,3.50
2023-05-07T23:05:01.948Z,3.70
2023-05-07T23:07:29.306Z,3.00
2023-05-07T23:09:56.175Z,3.10
2023-05-07T23:12:23.333Z,3.10
2023-05-07T23:14:50.520Z,3.40
2023-05-07T23:17:17.562Z,3.30
2023-05-07T23:19:44.436Z,3.40
2023-05-07T23:22:12.370Z,3.80
2023-05-07T23:24:39.891Z,3.70
2023-05-07T23:27:07.401Z,3.60
2023-05-07T23:29:35.311Z,3.70
2023-05-07T23:32:02.357Z,3.90
2023-05-07T23:34:30.506Z,3.70
2023-05-07T23:36:57.356Z,4.00
2023-05-07T23:39:24.167Z,4.00
2023-05-07T23:41:51.053Z,4.00
2023-05-07T23:44:17.963Z,3.30
2023-05-07T23:46:44.924Z,4.20
2023-05-07T23:49:12.246Z,3.60
2023-05-07T23:51:39.410Z,4.00
2023-05-07T23:54:06.885Z,4.00
2023-05-07T23:56:34.331Z,3.80
2023-05-07T23:59:01.488Z,4.10
